createdAt,value
2022-08-24T00:00:25.234Z,3.00
2022-08-24T00:02:52.002Z,2.73
2022-08-24T00:05:21.265Z,3.03
2022-08-24T00:07:49.212Z,2.97
2022-08-24T00:10:16.481Z,2.67
2022-08-24T00:12:43.638Z,2.93
2022-08-24T00:15:11.783Z,3.03
2022-08-24T00:17:39.358Z,2.57
2022-08-24T00:20:07.805Z,2.47
2022-08-24T00:22:34.640Z,2.73
2022-08-24T00:25:01.254Z,2.60
2022-08-24T00:27:28.006Z,3.13
2022-08-24T00:29:55.753Z,2.93
2022-08-24T00:32:22.437Z,3.10
2022-08-24T00:34:58.891Z,2.80
2022-08-24T00:37:28.535Z,3.10
2022-08-24T00:39:56.321Z,2.87
2022-08-24T00:42:23.456Z,3.07
2022-08-24T00:44:50.152Z,3.23
2022-08-24T00:47:33.125Z,2.67
2022-08-24T00:50:04.825Z,2.50
2022-08-24T00:52:39.245Z,3.67
2022-08-24T00:55:13.589Z,3.20
2022-08-24T00:57:43.926Z,2.80
2022-08-24T01:00:16.078Z,3.20
2022-08-24T01:02:45.392Z,2.83
2022-08-24T01:05:12.997Z,2.90
2022-08-24T01:07:40.584Z,3.33
2022-08-24T01:10:14.950Z,2.53
2022-08-24T01:12:52.269Z,2.53
2022-08-24T01:15:33.311Z,2.83
2022-08-24T01:18:19.725Z,2.43
2022-08-24T01:20:53.581Z,2.80
2022-08-24T01:23:38.858Z,2.73
2022-08-24T01:26:07.176Z,2.77
2022-08-24T01:28:36.978Z,2.63
2022-08-24T01:31:04.462Z,2.73
2022-08-24T01:33:31.874Z,2.90
2022-08-24T01:36:02.990Z,3.13
2022-08-24T01:38:32.341Z,2.90
2022-08-24T01:41:02.306Z,2.63
2022-08-24T01:43:29.726Z,3.07
2022-08-24T01:45:57.244Z,3.23
2022-08-24T01:48:23.882Z,2.60
2022-08-24T01:50:52.688Z,2.73
2022-08-24T01:53:21.357Z,2.50
2022-08-24T01:55:48.441Z,2.93
2022-08-24T01:58:15.841Z,2.77
2022-08-24T02:00:43.454Z,2.60
2022-08-24T02:03:10.154Z,2.70
2022-08-24T02:05:37.541Z,2.47
2022-08-24T02:08:05.037Z,2.40
2022-08-24T02:10:31.818Z,2.70
2022-08-24T02:12:59.006Z,2.83
2022-08-24T02:15:39.937Z,2.50
2022-08-24T02:18:14.990Z,2.83
2022-08-24T02:20:43.034Z,2.80
2022-08-24T02:23:09.667Z,2.60
2022-08-24T02:25:36.365Z,2.63
2022-08-24T02:28:04.620Z,3.00
2022-08-24T02:30:32.153Z,2.70
2022-08-24T02:32:59.675Z,2.60
2022-08-24T02:35:27.558Z,2.60
2022-08-24T02:37:54.190Z,2.27
2022-08-24T02:40:21.792Z,2.53
2022-08-24T02:42:49.231Z,2.33
2022-08-24T02:45:16.069Z,2.50
2022-08-24T02:47:44.099Z,2.60
2022-08-24T02:50:14.438Z,2.70
2022-08-24T02:52:42.374Z,2.67
2022-08-24T02:55:16.174Z,2.80
2022-08-24T02:57:47.772Z,2.60
2022-08-24T03:00:16.824Z,2.33
2022-08-24T03:02:50.609Z,2.43
2022-08-24T03:05:18.200Z,2.60
2022-08-24T03:07:45.044Z,2.27
2022-08-24T03:10:12.102Z,2.93
2022-08-24T03:12:39.377Z,2.43
2022-08-24T03:15:10.471Z,2.40
2022-08-24T03:17:38.901Z,2.60
2022-08-24T03:20:12.424Z,2.37
2022-08-24T03:22:40.050Z,2.50
2022-08-24T03:25:08.537Z,2.80
2022-08-24T03:27:36.105Z,2.43
2022-08-24T03:30:04.993Z,2.57
2022-08-24T03:32:32.325Z,2.87
2022-08-24T03:34:58.949Z,2.70
2022-08-24T03:37:25.592Z,2.40
2022-08-24T03:39:52.219Z,2.60
2022-08-24T03:42:19.482Z,2.67
2022-08-24T03:44:46.123Z,2.10
2022-08-24T03:47:13.826Z,2.23
2022-08-24T03:49:40.395Z,2.47
2022-08-24T03:52:07.084Z,2.43
2022-08-24T03:54:34.567Z,2.60
2022-08-24T03:57:01.653Z,2.40
2022-08-24T03:59:28.467Z,2.70
2022-08-24T04:01:58.257Z,2.30
2022-08-24T04:04:26.780Z,2.10
2022-08-24T04:06:55.051Z,2.30
2022-08-24T04:09:24.930Z,2.43
2022-08-24T04:11:51.979Z,2.70
2022-08-24T04:14:26.624Z,2.57
2022-08-24T04:17:04.531Z,2.90
2022-08-24T04:19:36.070Z,2.27
2022-08-24T04:22:03.825Z,2.30
2022-08-24T04:24:31.166Z,2.17
2022-08-24T04:26:57.908Z,2.10
2022-08-24T04:29:25.518Z,2.53
2022-08-24T04:31:53.430Z,2.50
2022-08-24T04:34:21.124Z,2.30
2022-08-24T04:36:48.529Z,2.23
2022-08-24T04:39:15.671Z,2.40
2022-08-24T04:41:48.150Z,2.40
2022-08-24T04:44:19.714Z,2.47
2022-08-24T04:46:46.790Z,2.27
2022-08-24T04:49:13.443Z,2.37
2022-08-24T04:51:40.173Z,2.43
2022-08-24T04:54:08.487Z,2.50
2022-08-24T04:56:36.724Z,2.80
2022-08-24T04:59:05.543Z,2.60
2022-08-24T05:01:33.608Z,2.77
2022-08-24T05:04:03.611Z,2.33
2022-08-24T05:06:32.321Z,2.53
2022-08-24T05:09:00.364Z,2.60
2022-08-24T05:11:28.977Z,2.27
2022-08-24T05:13:57.000Z,2.60
2022-08-24T05:16:25.523Z,2.40
2022-08-24T05:18:52.526Z,2.40
2022-08-24T05:21:21.694Z,2.40
2022-08-24T05:23:49.859Z,2.30
2022-08-24T05:26:21.333Z,2.33
2022-08-24T05:28:50.385Z,2.30
2022-08-24T05:31:20.448Z,2.83
2022-08-24T05:33:48.145Z,2.50
2022-08-24T05:36:26.805Z,2.67
2022-08-24T05:38:57.076Z,3.07
2022-08-24T05:41:24.674Z,2.83
2022-08-24T05:43:59.202Z,2.60
2022-08-24T05:46:26.319Z,3.17
2022-08-24T05:48:54.992Z,3.00
2022-08-24T05:51:30.782Z,2.70
2022-08-24T05:54:05.017Z,2.50
2022-08-24T05:56:51.915Z,2.80
2022-08-24T05:59:19.712Z,2.80
2022-08-24T06:01:47.443Z,2.83
2022-08-24T06:04:14.341Z,2.73
2022-08-24T06:06:42.721Z,2.70
2022-08-24T06:09:11.509Z,3.07
2022-08-24T06:11:40.106Z,2.70
2022-08-24T06:14:13.657Z,2.83
2022-08-24T06:16:54.454Z,2.80
2022-08-24T06:19:22.245Z,2.83
2022-08-24T06:21:51.912Z,2.67
2022-08-24T06:24:18.845Z,2.70
2022-08-24T06:27:05.698Z,2.83
2022-08-24T06:29:34.638Z,2.77
2022-08-24T06:32:19.600Z,2.77
2022-08-24T06:34:46.712Z,2.67
2022-08-24T06:37:14.971Z,2.93
2022-08-24T06:39:42.118Z,3.60
2022-08-24T06:42:10.981Z,3.17
2022-08-24T06:44:42.916Z,3.17
2022-08-24T06:47:19.100Z,3.53
2022-08-24T06:49:45.953Z,2.77
2022-08-24T06:52:12.844Z,3.43
2022-08-24T06:54:39.478Z,3.60
2022-08-24T06:57:07.338Z,3.47
2022-08-24T06:59:33.898Z,2.90
2022-08-24T07:02:01.135Z,4.47
2022-08-24T07:04:32.468Z,3.90
2022-08-24T07:07:17.721Z,4.37
2022-08-24T07:09:45.441Z,5.10
2022-08-24T07:12:12.009Z,5.10
2022-08-24T07:14:38.541Z,4.73
2022-08-24T07:17:05.182Z,5.20
2022-08-24T07:19:32.717Z,4.70
2022-08-24T07:22:00.720Z,4.03
2022-08-24T07:24:28.486Z,4.07
2022-08-24T07:26:56.569Z,4.30
2022-08-24T07:29:46.356Z,4.30
2022-08-24T07:32:10.218Z,4.10
2022-08-24T07:34:40.213Z,3.87
2022-08-24T07:37:07.987Z,4.17
2022-08-24T07:39:37.598Z,4.27
2022-08-24T07:42:14.754Z,3.80
2022-08-24T07:44:45.196Z,4.10
2022-08-24T07:47:34.718Z,4.07
2022-08-24T07:49:59.774Z,4.80
2022-08-24T07:52:27.874Z,4.60
2022-08-24T07:54:55.466Z,3.97
2022-08-24T07:57:22.085Z,3.87
2022-08-24T07:59:48.811Z,5.37
2022-08-24T08:02:18.462Z,4.23
2022-08-24T08:04:56.537Z,5.10
2022-08-24T08:07:23.189Z,5.00
2022-08-24T08:09:50.806Z,5.80
2022-08-24T08:12:18.937Z,5.43
2022-08-24T08:14:54.381Z,5.27
2022-08-24T08:17:21.081Z,4.90
2022-08-24T08:19:47.657Z,5.17
2022-08-24T08:22:33.526Z,5.00
2022-08-24T08:25:19.218Z,5.37
2022-08-24T08:27:47.370Z,5.27
2022-08-24T08:30:15.554Z,4.87
2022-08-24T08:32:42.756Z,4.83
2022-08-24T08:35:10.109Z,4.80
2022-08-24T08:37:37.545Z,5.20
2022-08-24T08:40:07.312Z,5.23
2022-08-24T08:42:42.573Z,4.77
2022-08-24T08:45:24.815Z,4.53
2022-08-24T08:48:18.015Z,4.27
2022-08-24T08:51:24.804Z,4.87
2022-08-24T08:53:57.594Z,5.40
2022-08-24T08:57:04.870Z,5.17
2022-08-24T08:59:45.567Z,5.30
2022-08-24T09:02:34.340Z,4.80
2022-08-24T09:05:35.439Z,4.80
2022-08-24T09:08:40.190Z,4.97
2022-08-24T09:11:32.232Z,4.87
2022-08-24T09:14:21.365Z,4.90
2022-08-24T09:17:22.159Z,5.47
2022-08-24T09:20:09.940Z,4.90
2022-08-24T09:22:43.414Z,5.67
2022-08-24T09:25:26.461Z,5.80
2022-08-24T09:28:12.152Z,6.17
2022-08-24T09:30:56.173Z,5.50
2022-08-24T09:33:41.757Z,5.70
2022-08-24T09:36:46.683Z,6.50
2022-08-24T09:39:36.893Z,6.00
2022-08-24T09:42:41.226Z,6.67
2022-08-24T09:45:24.998Z,7.10
2022-08-24T09:48:16.283Z,7.93
2022-08-24T09:51:17.278Z,7.77
2022-08-24T09:54:21.440Z,5.80
2022-08-24T09:57:20.072Z,6.13
2022-08-24T10:00:03.405Z,5.57
2022-08-24T10:03:04.009Z,5.00
2022-08-24T10:05:49.199Z,5.00
2022-08-24T10:08:24.640Z,5.50
2022-08-24T10:11:00.479Z,4.53
2022-08-24T10:13:38.584Z,5.33
2022-08-24T10:16:32.316Z,5.13
2022-08-24T10:19:15.971Z,5.50
2022-08-24T10:21:58.517Z,5.27
2022-08-24T10:24:35.378Z,4.50
2022-08-24T10:27:15.058Z,5.20
2022-08-24T10:30:12.723Z,5.60
2022-08-24T10:32:54.855Z,5.00
2022-08-24T10:35:39.902Z,4.90
2022-08-24T10:38:52.973Z,5.73
2022-08-24T10:41:43.587Z,5.17
2022-08-24T10:44:37.832Z,4.87
2022-08-24T10:47:12.285Z,4.97
2022-08-24T10:50:15.037Z,4.57
2022-08-24T10:53:14.386Z,4.90
2022-08-24T10:55:41.590Z,5.00
2022-08-24T10:58:39.137Z,4.27
2022-08-24T11:01:26.629Z,4.40
2022-08-24T11:04:08.641Z,4.90
2022-08-24T11:06:45.029Z,4.40
2022-08-24T11:09:19.189Z,4.60
2022-08-24T11:11:49.089Z,5.23
2022-08-24T11:14:15.565Z,4.20
2022-08-24T11:16:47.165Z,4.73
2022-08-24T11:19:33.852Z,4.47
2022-08-24T11:22:05.021Z,4.40
2022-08-24T11:24:51.974Z,4.60
2022-08-24T11:27:28.709Z,4.50
2022-08-24T11:29:58.412Z,4.40
2022-08-24T11:32:51.416Z,4.73
2022-08-24T11:35:31.922Z,4.23
2022-08-24T11:38:16.085Z,4.40
2022-08-24T11:40:49.911Z,4.70
2022-08-24T11:43:40.922Z,5.30
2022-08-24T11:46:14.579Z,4.47
2022-08-24T11:49:13.281Z,4.63
2022-08-24T11:52:07.407Z,4.10
2022-08-24T11:55:02.221Z,4.30
2022-08-24T11:57:47.431Z,4.23
2022-08-24T12:00:18.746Z,4.57
2022-08-24T12:03:23.104Z,5.00
2022-08-24T12:06:08.972Z,4.70
2022-08-24T12:08:50.548Z,4.27
2022-08-24T12:11:26.814Z,5.10
2022-08-24T12:14:16.954Z,4.80
2022-08-24T12:16:57.478Z,5.30
2022-08-24T12:19:29.897Z,5.53
2022-08-24T12:22:04.418Z,5.00
2022-08-24T12:24:38.396Z,4.97
2022-08-24T12:27:11.293Z,4.33
2022-08-24T12:30:06.674Z,4.80
2022-08-24T12:32:41.459Z,4.77
2022-08-24T12:35:21.485Z,4.80
2022-08-24T12:37:55.492Z,4.83
2022-08-24T12:40:29.373Z,4.70
2022-08-24T12:43:00.143Z,4.57
2022-08-24T12:45:27.290Z,4.47
2022-08-24T12:48:07.551Z,4.80
2022-08-24T12:50:52.339Z,4.60
2022-08-24T12:53:30.707Z,4.73
2022-08-24T12:56:19.049Z,4.70
2022-08-24T12:58:58.457Z,4.80
2022-08-24T13:01:33.446Z,5.10
2022-08-24T13:04:12.345Z,4.33
2022-08-24T13:06:55.275Z,4.67
2022-08-24T13:09:49.178Z,4.97
2022-08-24T13:12:43.783Z,5.10
2022-08-24T13:15:31.542Z,5.30
2022-08-24T13:18:20.874Z,5.57
2022-08-24T13:20:50.267Z,4.37
2022-08-24T13:23:20.294Z,5.17
2022-08-24T13:25:46.824Z,5.33
2022-08-24T13:28:25.432Z,4.63
2022-08-24T13:31:08.369Z,5.20
2022-08-24T13:33:57.136Z,5.77
2022-08-24T13:36:54.258Z,5.13
2022-08-24T13:39:40.868Z,6.03
2022-08-24T13:42:15.569Z,5.23
2022-08-24T13:45:00.974Z,5.17
2022-08-24T13:47:58.459Z,5.67
2022-08-24T13:50:56.070Z,5.17
2022-08-24T13:54:20.198Z,4.97
2022-08-24T13:56:54.477Z,5.57
2022-08-24T13:59:57.018Z,5.07
2022-08-24T14:02:35.402Z,4.87
2022-08-24T14:05:13.021Z,5.47
2022-08-24T14:08:10.441Z,5.13
2022-08-24T14:10:57.053Z,4.70
2022-08-24T14:13:49.311Z,4.73
2022-08-24T14:16:59.872Z,4.67
2022-08-24T14:20:12.777Z,4.47
2022-08-24T14:22:50.030Z,4.80
2022-08-24T14:25:21.300Z,5.23
2022-08-24T14:28:29.009Z,5.03
2022-08-24T14:31:28.449Z,5.37
2022-08-24T14:34:14.933Z,5.27
2022-08-24T14:37:01.654Z,5.03
2022-08-24T14:39:51.122Z,5.03
2022-08-24T14:42:37.998Z,5.10
2022-08-24T14:45:11.765Z,5.10
2022-08-24T14:48:08.070Z,4.90
2022-08-24T14:50:48.438Z,5.70
2022-08-24T14:53:30.861Z,4.90
2022-08-24T14:56:19.979Z,5.60
2022-08-24T14:58:51.621Z,5.37
2022-08-24T15:01:41.591Z,5.43
2022-08-24T15:04:37.584Z,5.53
2022-08-24T15:07:28.922Z,5.30
2022-08-24T15:09:57.215Z,5.10
2022-08-24T15:12:37.284Z,5.57
2022-08-24T15:15:31.903Z,5.40
2022-08-24T15:18:09.521Z,5.37
2022-08-24T15:20:44.534Z,5.20
2022-08-24T15:23:27.786Z,5.40
2022-08-24T15:26:02.034Z,5.67
2022-08-24T15:28:32.910Z,5.57
2022-08-24T15:31:03.729Z,5.73
2022-08-24T15:33:31.291Z,5.73
2022-08-24T15:36:14.125Z,5.60
2022-08-24T15:38:41.466Z,5.37
2022-08-24T15:41:19.057Z,5.67
2022-08-24T15:43:49.349Z,5.73
2022-08-24T15:46:19.869Z,5.27
2022-08-24T15:48:48.062Z,5.30
2022-08-24T15:51:50.466Z,4.83
2022-08-24T15:54:30.568Z,5.00
2022-08-24T15:57:01.538Z,5.17
2022-08-24T15:59:39.269Z,5.00
2022-08-24T16:02:28.599Z,5.37
2022-08-24T16:05:24.206Z,4.90
2022-08-24T16:08:03.294Z,4.30
2022-08-24T16:10:31.938Z,4.17
2022-08-24T16:13:07.476Z,4.83
2022-08-24T16:15:34.574Z,4.13
2022-08-24T16:18:01.477Z,4.73
2022-08-24T16:20:32.965Z,4.67
2022-08-24T16:23:07.430Z,4.57
2022-08-24T16:25:42.881Z,5.43
2022-08-24T16:28:36.630Z,4.57
2022-08-24T16:31:07.683Z,5.20
2022-08-24T16:33:44.048Z,6.53
2022-08-24T16:36:15.318Z,5.83
2022-08-24T16:38:47.251Z,5.57
2022-08-24T16:41:17.452Z,5.30
2022-08-24T16:43:45.753Z,5.37
2022-08-24T16:46:13.626Z,5.80
2022-08-24T16:48:40.596Z,5.60
2022-08-24T16:51:07.629Z,6.47
2022-08-24T16:53:34.513Z,7.23
2022-08-24T16:56:04.157Z,6.10
2022-08-24T16:58:33.649Z,6.40
2022-08-24T17:01:02.130Z,6.20
2022-08-24T17:03:29.132Z,6.07
2022-08-24T17:05:57.156Z,5.97
2022-08-24T17:08:24.670Z,5.07
2022-08-24T17:10:51.275Z,5.17
2022-08-24T17:13:45.847Z,5.13
2022-08-24T17:16:04.560Z,5.63
2022-08-24T17:18:33.927Z,5.53
2022-08-24T17:21:01.303Z,5.37
2022-08-24T17:23:27.980Z,5.87
2022-08-24T17:25:54.546Z,5.47
2022-08-24T17:28:21.277Z,5.53
2022-08-24T17:30:51.315Z,5.03
2022-08-24T17:33:18.545Z,5.37
2022-08-24T17:35:45.494Z,5.07
2022-08-24T17:38:12.131Z,4.60
2022-08-24T17:40:38.685Z,5.50
2022-08-24T17:43:05.526Z,5.37
2022-08-24T17:45:32.356Z,5.53
2022-08-24T17:47:58.984Z,5.07
2022-08-24T17:50:26.693Z,5.33
2022-08-24T17:52:59.176Z,4.77
2022-08-24T17:55:27.911Z,4.77
2022-08-24T17:57:54.455Z,5.10
2022-08-24T18:00:21.572Z,5.30
2022-08-24T18:02:48.122Z,5.53
2022-08-24T18:05:14.879Z,4.83
2022-08-24T18:07:53.609Z,5.03
2022-08-24T18:10:27.986Z,4.80
2022-08-24T18:12:56.195Z,5.50
2022-08-24T18:15:32.582Z,4.47
2022-08-24T18:18:08.575Z,4.60
2022-08-24T18:20:38.472Z,4.77
2022-08-24T18:23:05.155Z,5.13
2022-08-24T18:25:45.785Z,5.13
2022-08-24T18:28:14.617Z,5.30
2022-08-24T18:30:42.474Z,5.07
2022-08-24T18:33:10.579Z,5.63
2022-08-24T18:35:37.207Z,4.87
2022-08-24T18:38:03.771Z,5.50
2022-08-24T18:40:33.342Z,5.23
2022-08-24T18:43:02.939Z,4.80
2022-08-24T18:45:32.822Z,4.97
2022-08-24T18:47:59.461Z,5.00
2022-08-24T18:50:28.794Z,5.10
2022-08-24T18:52:56.336Z,5.60
2022-08-24T18:55:24.153Z,5.77
2022-08-24T18:57:51.474Z,5.40
2022-08-24T19:00:18.344Z,5.60
2022-08-24T19:02:45.402Z,5.90
2022-08-24T19:05:19.692Z,5.17
2022-08-24T19:07:49.557Z,5.10
2022-08-24T19:10:22.274Z,5.40
2022-08-24T19:12:55.254Z,5.93
2022-08-24T19:15:29.269Z,5.07
2022-08-24T19:18:07.190Z,6.10
2022-08-24T19:20:35.375Z,5.50
2022-08-24T19:23:08.391Z,5.73
2022-08-24T19:25:36.949Z,6.27
2022-08-24T19:28:04.626Z,6.00
2022-08-24T19:30:31.570Z,5.10
2022-08-24T19:32:59.181Z,6.00
2022-08-24T19:35:26.242Z,5.77
2022-08-24T19:37:52.818Z,6.33
2022-08-24T19:40:20.935Z,6.20
2022-08-24T19:42:50.711Z,5.27
2022-08-24T19:45:41.286Z,5.53
2022-08-24T19:48:08.936Z,5.50
2022-08-24T19:50:36.299Z,6.70
2022-08-24T19:53:04.765Z,6.17
2022-08-24T19:55:32.514Z,6.60
2022-08-24T19:58:20.604Z,6.80
2022-08-24T20:01:21.267Z,5.90
2022-08-24T20:03:48.441Z,6.57
2022-08-24T20:06:16.594Z,6.60
2022-08-24T20:08:43.402Z,6.80
2022-08-24T20:11:15.566Z,6.27
2022-08-24T20:13:42.600Z,7.20
2022-08-24T20:16:12.748Z,6.80
2022-08-24T20:18:39.708Z,6.80
2022-08-24T20:21:07.161Z,7.03
2022-08-24T20:23:33.967Z,6.63
2022-08-24T20:26:03.980Z,6.40
2022-08-24T20:28:40.025Z,7.00
2022-08-24T20:31:08.174Z,6.33
2022-08-24T20:33:35.331Z,6.40
2022-08-24T20:36:02.209Z,6.50
2022-08-24T20:38:29.415Z,6.37
2022-08-24T20:40:59.713Z,7.17
2022-08-24T20:43:26.735Z,6.77
2022-08-24T20:45:53.708Z,7.30
2022-08-24T20:48:32.198Z,7.70
2022-08-24T20:51:00.195Z,6.63
2022-08-24T20:53:27.662Z,7.03
2022-08-24T20:55:56.959Z,7.27
2022-08-24T20:58:23.729Z,6.63
2022-08-24T21:00:50.566Z,7.23
2022-08-24T21:03:18.800Z,7.30
2022-08-24T21:05:47.285Z,6.93
2022-08-24T21:08:14.628Z,7.50
2022-08-24T21:10:42.311Z,7.03
2022-08-24T21:13:09.278Z,7.17
2022-08-24T21:15:38.240Z,7.23
2022-08-24T21:18:05.193Z,7.40
2022-08-24T21:20:32.705Z,6.83
2022-08-24T21:22:59.550Z,7.03
2022-08-24T21:25:27.197Z,7.40
2022-08-24T21:27:54.345Z,7.50
2022-08-24T21:30:22.853Z,6.90
2022-08-24T21:33:07.899Z,7.00
2022-08-24T21:35:35.853Z,7.53
2022-08-24T21:38:04.911Z,7.60
2022-08-24T21:40:31.721Z,7.50
2022-08-24T21:42:58.384Z,7.20
2022-08-24T21:45:25.438Z,7.67
2022-08-24T21:47:52.468Z,7.37
2022-08-24T21:50:19.606Z,7.80
2022-08-24T21:52:53.807Z,7.17
2022-08-24T21:55:21.522Z,6.70
2022-08-24T21:57:48.486Z,7.23
2022-08-24T22:00:18.206Z,7.73
2022-08-24T22:02:45.659Z,7.27
2022-08-24T22:05:12.226Z,7.40
2022-08-24T22:07:38.789Z,6.60
2022-08-24T22:10:07.943Z,7.27
2022-08-24T22:12:36.141Z,7.13
2022-08-24T22:15:05.361Z,7.13
2022-08-24T22:17:32.074Z,7.67
2022-08-24T22:19:58.719Z,8.03
2022-08-24T22:22:26.034Z,7.43
2022-08-24T22:24:52.647Z,7.27
2022-08-24T22:27:19.274Z,7.67
2022-08-24T22:29:49.447Z,8.40
2022-08-24T22:32:18.775Z,7.13
2022-08-24T22:34:45.378Z,7.73
2022-08-24T22:37:11.897Z,7.93
2022-08-24T22:39:38.524Z,7.90
2022-08-24T22:42:05.444Z,8.13
2022-08-24T22:44:33.403Z,8.00
2022-08-24T22:47:02.200Z,7.90
2022-08-24T22:49:32.662Z,7.10
2022-08-24T22:51:59.742Z,8.17
2022-08-24T22:54:26.486Z,7.83
2022-08-24T22:56:55.086Z,7.50
2022-08-24T22:59:43.367Z,7.90
2022-08-24T23:02:14.110Z,7.70
2022-08-24T23:04:45.134Z,7.50
2022-08-24T23:07:12.445Z,7.30
2022-08-24T23:09:44.273Z,7.37
2022-08-24T23:12:16.316Z,7.57
2022-08-24T23:14:43.420Z,7.40
2022-08-24T23:17:10.844Z,7.63
2022-08-24T23:19:55.783Z,7.17
2022-08-24T23:22:22.499Z,7.77
2022-08-24T23:24:49.774Z,7.33
2022-08-24T23:27:17.686Z,7.53
2022-08-24T23:29:45.849Z,7.53
2022-08-24T23:32:13.718Z,7.27
2022-08-24T23:34:45.933Z,7.37
2022-08-24T23:37:12.652Z,7.57
2022-08-24T23:39:39.592Z,7.93
2022-08-24T23:42:06.892Z,7.57
2022-08-24T23:44:33.994Z,7.00
2022-08-24T23:47:01.111Z,7.60
2022-08-24T23:49:29.317Z,7.37
2022-08-24T23:51:56.315Z,6.77
2022-08-24T23:54:23.926Z,7.20
2022-08-24T23:56:51.386Z,7.43
2022-08-24T23:59:23.176Z,7.60
